createdAt,value
2019-06-26T00:01:37.190Z,70.80
2019-06-26T00:06:40.850Z,71.10
2019-06-26T00:11:44.555Z,71.50
2019-06-26T00:16:50.221Z,71.60
2019-06-26T00:22:06.845Z,71.90
2019-06-26T00:27:11.457Z,72.20
2019-06-26T00:32:16.601Z,72.40
2019-06-26T00:37:24.908Z,72.90
2019-06-26T00:42:28.660Z,73.10
2019-06-26T00:47:32.700Z,73.20
2019-06-26T00:52:36.403Z,73.50
2019-06-26T00:57:58.352Z,73.70
2019-06-26T01:03:02.086Z,73.90
2019-06-26T01:08:05.768Z,74.30
2019-06-26T01:13:15.108Z,74.60
2019-06-26T01:18:18.819Z,74.50
2019-06-26T01:23:25.139Z,74.90
2019-06-26T01:28:28.784Z,75.00
2019-06-26T01:33:33.462Z,75.50
2019-06-26T01:38:38.086Z,75.70
2019-06-26T01:43:42.881Z,76.00
2019-06-26T01:48:46.647Z,76.40
2019-06-26T01:54:00.729Z,76.40
2019-06-26T01:59:12.493Z,76.70
2019-06-26T02:04:16.102Z,77.00
2019-06-26T02:09:19.874Z,76.90
2019-06-26T02:14:31.679Z,77.60
2019-06-26T02:19:37.397Z,77.70
2019-06-26T02:24:43.200Z,77.80
2019-06-26T02:29:55.476Z,78.20
2019-06-26T02:35:09.655Z,78.50
2019-06-26T02:40:14.688Z,78.50
2019-06-26T02:45:18.346Z,79.70
2019-06-26T02:50:24.541Z,79.70
2019-06-26T02:55:28.292Z,80.10
2019-06-26T03:00:32.018Z,81.10
2019-06-26T03:05:39.737Z,80.60
2019-06-26T03:10:46.479Z,81.20
2019-06-26T03:15:53.166Z,80.80
2019-06-26T03:20:57.912Z,81.30
2019-06-26T03:26:01.661Z,81.50
2019-06-26T03:31:05.416Z,81.60
2019-06-26T03:36:09.055Z,81.60
2019-06-26T03:41:20.915Z,81.70
2019-06-26T03:46:25.539Z,81.70
2019-06-26T03:51:31.251Z,81.90
2019-06-26T03:56:35.002Z,82.00
2019-06-26T04:01:38.679Z,82.80
2019-06-26T04:06:42.368Z,83.20
2019-06-26T04:11:46.066Z,82.90
2019-06-26T04:16:56.474Z,82.70
2019-06-26T04:22:00.143Z,83.30
2019-06-26T04:27:04.014Z,83.60
2019-06-26T04:32:07.770Z,83.40
2019-06-26T04:37:13.389Z,83.70
2019-06-26T04:42:16.966Z,84.00
2019-06-26T04:47:22.623Z,84.10
2019-06-26T04:52:27.250Z,84.40
2019-06-26T04:57:31.002Z,84.40
2019-06-26T05:02:43.570Z,84.70
2019-06-26T05:07:47.206Z,84.90
2019-06-26T05:12:51.111Z,85.40
2019-06-26T05:17:54.836Z,85.40
2019-06-26T05:23:05.467Z,85.90
2019-06-26T05:28:09.248Z,86.10
2019-06-26T05:33:12.756Z,86.00
2019-06-26T05:38:16.251Z,86.30
2019-06-26T05:43:19.979Z,86.30
2019-06-26T05:48:23.538Z,86.20
2019-06-26T05:53:27.104Z,86.10
2019-06-26T05:58:30.736Z,86.00
2019-06-26T06:03:36.018Z,85.90
2019-06-26T06:08:41.201Z,86.30
2019-06-26T06:13:46.324Z,86.50
2019-06-26T06:18:49.820Z,86.60
2019-06-26T06:23:53.377Z,86.30
2019-06-26T06:28:56.890Z,86.80
2019-06-26T06:34:00.619Z,86.70
2019-06-26T06:39:05.977Z,86.60
2019-06-26T06:44:09.503Z,86.30
2019-06-26T06:49:13.298Z,86.70
2019-06-26T06:54:16.818Z,86.30
2019-06-26T06:59:22.186Z,87.70
2019-06-26T07:04:25.706Z,86.50
2019-06-26T07:09:29.215Z,86.70
2019-06-26T07:14:32.755Z,87.20
2019-06-26T07:19:36.337Z,86.70
2019-06-26T07:24:39.857Z,87.00
2019-06-26T07:29:43.404Z,86.80
2019-06-26T07:34:46.930Z,86.70
2019-06-26T07:39:50.441Z,87.40
2019-06-26T07:44:54.057Z,87.40
2019-06-26T07:49:59.338Z,86.60
2019-06-26T07:55:02.934Z,86.60
2019-06-26T08:00:07.325Z,86.60
2019-06-26T08:05:11.925Z,86.50
2019-06-26T08:10:15.936Z,86.50
2019-06-26T08:15:19.925Z,86.50
2019-06-26T08:20:23.455Z,86.30
2019-06-26T08:25:27.130Z,86.40
2019-06-26T08:30:30.749Z,86.40
2019-06-26T08:35:34.362Z,86.50
2019-06-26T08:40:52.883Z,86.30
2019-06-26T08:46:17.853Z,86.10
2019-06-26T08:51:25.102Z,85.80
2019-06-26T08:56:28.666Z,85.40
2019-06-26T09:01:32.255Z,85.40
2019-06-26T09:06:35.873Z,85.10
2019-06-26T09:11:40.320Z,84.80
2019-06-26T09:16:45.506Z,84.60
2019-06-26T09:22:00.848Z,84.50
2019-06-26T09:27:04.849Z,84.50
2019-06-26T09:32:08.543Z,84.20
2019-06-26T09:37:12.360Z,84.10
2019-06-26T09:42:19.386Z,83.80
2019-06-26T09:47:21.256Z,83.70
2019-06-26T09:52:25.815Z,83.80
2019-06-26T09:57:46.653Z,83.30
2019-06-26T10:02:56.236Z,83.20
2019-06-26T10:07:59.865Z,83.40
2019-06-26T10:13:03.617Z,83.60
2019-06-26T10:18:07.385Z,83.60
2019-06-26T10:23:13.030Z,83.40
2019-06-26T10:28:16.694Z,83.00
2019-06-26T10:33:26.201Z,82.90
2019-06-26T10:38:29.812Z,82.80
2019-06-26T10:43:35.237Z,82.60
2019-06-26T10:48:38.860Z,82.70
2019-06-26T10:53:42.481Z,82.70
2019-06-26T10:58:47.684Z,82.70
2019-06-26T11:03:52.954Z,82.70
2019-06-26T11:08:56.468Z,82.20
2019-06-26T11:14:00.027Z,82.40
2019-06-26T11:19:04.097Z,82.40
2019-06-26T11:24:09.288Z,82.50
2019-06-26T11:29:12.951Z,82.50
2019-06-26T11:34:16.657Z,82.40
2019-06-26T11:39:20.320Z,82.20
2019-06-26T11:44:37.736Z,82.20
2019-06-26T11:49:41.435Z,82.00
2019-06-26T11:54:58.297Z,82.40
2019-06-26T11:59:50.415Z,82.50
2019-06-26T12:05:26.007Z,82.20
2019-06-26T12:10:21.413Z,82.60
2019-06-26T12:15:29.005Z,82.40
2019-06-26T12:20:34.163Z,82.00
2019-06-26T12:25:40.243Z,81.20
2019-06-26T12:30:48.072Z,81.30
2019-06-26T12:35:50.835Z,80.80
2019-06-26T12:40:54.420Z,80.10
2019-06-26T12:45:57.917Z,79.60
2019-06-26T12:51:01.574Z,78.80
2019-06-26T12:56:09.591Z,78.40
2019-06-26T13:01:13.180Z,77.70
2019-06-26T13:06:16.755Z,77.20
2019-06-26T13:11:20.292Z,76.30
2019-06-26T13:16:25.414Z,76.30
2019-06-26T13:21:28.954Z,76.30
2019-06-26T13:26:32.482Z,75.70
2019-06-26T13:31:36.304Z,75.70
2019-06-26T13:36:40.435Z,75.00
2019-06-26T13:41:43.963Z,74.90
2019-06-26T13:46:52.076Z,74.60
2019-06-26T13:51:56.006Z,74.10
2019-06-26T13:56:59.694Z,74.30
2019-06-26T14:02:04.774Z,74.70
2019-06-26T14:07:13.286Z,74.60
2019-06-26T14:12:19.145Z,74.40
2019-06-26T14:17:25.919Z,74.00
2019-06-26T14:22:32.644Z,74.30
2019-06-26T14:27:36.260Z,74.00
2019-06-26T14:32:39.878Z,73.40
2019-06-26T14:37:45.048Z,73.40
2019-06-26T14:42:48.741Z,73.30
2019-06-26T14:48:00.823Z,74.00
2019-06-26T14:53:06.156Z,73.20
2019-06-26T14:58:09.874Z,72.90
2019-06-26T15:03:18.855Z,72.70
2019-06-26T15:08:26.783Z,72.60
2019-06-26T15:13:30.515Z,72.70
2019-06-26T15:18:34.278Z,72.40
2019-06-26T15:23:39.599Z,72.30
2019-06-26T15:28:43.227Z,71.70
2019-06-26T15:33:47.887Z,71.20
2019-06-26T15:38:54.353Z,70.90
2019-06-26T15:43:58.935Z,70.80
2019-06-26T15:49:02.504Z,70.30
2019-06-26T15:54:06.095Z,70.30
2019-06-26T15:59:11.638Z,69.90
2019-06-26T16:04:16.204Z,69.20
2019-06-26T16:09:19.845Z,69.00
2019-06-26T16:14:23.495Z,68.50
2019-06-26T16:19:27.034Z,67.90
2019-06-26T16:24:30.606Z,68.70
2019-06-26T16:29:34.114Z,67.70
2019-06-26T16:34:37.716Z,67.50
2019-06-26T16:39:42.146Z,67.40
2019-06-26T16:44:45.768Z,67.30
2019-06-26T16:49:53.595Z,67.90
2019-06-26T16:54:58.120Z,66.40
2019-06-26T17:00:09.416Z,66.50
2019-06-26T17:05:11.676Z,66.20
2019-06-26T17:10:15.528Z,65.80
2019-06-26T17:15:19.233Z,65.40
2019-06-26T17:20:25.670Z,64.60
2019-06-26T17:25:29.250Z,64.50
2019-06-26T17:30:32.892Z,64.80
2019-06-26T17:35:36.437Z,64.30
2019-06-26T17:40:40.100Z,64.70
2019-06-26T17:45:44.577Z,63.20
2019-06-26T17:50:48.286Z,62.70
2019-06-26T17:55:51.863Z,62.60
2019-06-26T18:00:56.250Z,63.50
2019-06-26T18:06:05.993Z,63.50
2019-06-26T18:11:09.729Z,63.60
2019-06-26T18:16:13.492Z,62.70
2019-06-26T18:21:18.118Z,62.10
2019-06-26T18:26:46.215Z,61.90
2019-06-26T18:31:49.941Z,61.50
2019-06-26T18:36:56.311Z,61.30
2019-06-26T18:42:02.426Z,61.20
2019-06-26T18:47:12.834Z,61.30
2019-06-26T18:52:16.616Z,61.40
2019-06-26T18:57:33.379Z,61.50
2019-06-26T19:02:46.130Z,61.70
2019-06-26T19:07:52.406Z,62.00
2019-06-26T19:13:09.468Z,62.60
2019-06-26T19:18:13.137Z,63.20
2019-06-26T19:23:22.525Z,63.60
2019-06-26T19:28:26.218Z,64.10
2019-06-26T19:33:30.961Z,64.50
2019-06-26T19:38:59.682Z,64.90
2019-06-26T19:44:09.098Z,65.40
2019-06-26T19:49:14.590Z,65.60
2019-06-26T19:54:32.348Z,65.80
2019-06-26T19:59:56.253Z,66.20
2019-06-26T20:05:07.593Z,67.40
2019-06-26T20:10:17.062Z,66.80
2019-06-26T20:15:28.187Z,67.20
2019-06-26T20:20:31.980Z,67.40
2019-06-26T20:25:35.709Z,67.60
2019-06-26T20:30:39.462Z,67.90
2019-06-26T20:35:55.553Z,68.00
2019-06-26T20:41:11.790Z,68.20
2019-06-26T20:46:15.728Z,68.30
2019-06-26T20:51:21.055Z,68.50
2019-06-26T20:56:25.855Z,68.50
2019-06-26T21:01:29.740Z,68.80
2019-06-26T21:06:33.358Z,68.80
2019-06-26T21:11:37.030Z,69.10
2019-06-26T21:16:50.025Z,69.30
2019-06-26T21:21:53.693Z,69.40
2019-06-26T21:26:58.346Z,69.60
2019-06-26T21:32:02.052Z,69.80
2019-06-26T21:37:31.005Z,70.00
2019-06-26T21:42:39.907Z,69.90
2019-06-26T21:47:48.961Z,70.00
2019-06-26T21:52:53.734Z,70.10
2019-06-26T21:58:03.670Z,70.20
2019-06-26T22:03:09.716Z,70.30
2019-06-26T22:08:15.077Z,70.40
2019-06-26T22:13:23.510Z,70.50
2019-06-26T22:18:34.417Z,70.70
2019-06-26T22:23:39.858Z,70.90
2019-06-26T22:28:44.646Z,71.10
2019-06-26T22:33:50.300Z,71.20
2019-06-26T22:38:56.923Z,71.20
2019-06-26T22:44:10.485Z,71.30
2019-06-26T22:49:38.922Z,71.40
2019-06-26T22:54:43.649Z,71.20
2019-06-26T22:59:49.538Z,71.60
2019-06-26T23:04:53.466Z,71.70
2019-06-26T23:10:03.449Z,71.80
2019-06-26T23:15:11.199Z,71.90
2019-06-26T23:20:18.397Z,72.00
2019-06-26T23:25:23.120Z,71.90
2019-06-26T23:30:26.896Z,72.00
2019-06-26T23:35:33.586Z,72.00
2019-06-26T23:40:45.097Z,72.10
2019-06-26T23:45:53.750Z,72.20
2019-06-26T23:50:57.501Z,72.30
2019-06-26T23:56:05.511Z,72.40
